Time;durP1;ratioP1;P1;durP2;ratioP2;P2;SDS_P1;SDS_P2;PMS_P1;PMS_P2;Temp;Humidity;BMP_temperature;BMP_pressure;BME280_temperature;BME280_humidity;BME280_pressure;Samples;Min_cycle;Max_cycle;Signal;HPM_P1;HPM_P2
2024/04/11 00:00:13;;;;;;;7.38;1.98;;;;;;;7.58;86.85;102703.38;5400845;26;20022;-74
2024/04/11 00:02:39;;;;;;;4.65;1.73;;;;;;;7.57;86.99;102704.31;5433560;26;20015;-74
2024/04/11 00:05:06;;;;;;;5.93;1.75;;;;;;;7.58;86.78;102703.38;5438593;26;20006;-74
2024/04/11 00:07:33;;;;;;;6.60;2.92;;;;;;;7.59;86.00;102705.06;5406390;26;19999;-74
2024/04/11 00:09:58;;;;;;;10.38;1.90;;;;;;;7.59;85.78;102709.38;5406037;26;20011;-74
2024/04/11 00:12:24;;;;;;;7.20;1.65;;;;;;;7.57;85.70;102709.47;5432020;26;20715;-74
2024/04/11 00:14:51;;;;;;;5.70;1.60;;;;;;;7.66;84.22;102702.09;5402003;26;20006;-74
2024/04/11 00:17:17;;;;;;;5.18;1.58;;;;;;;7.73;82.32;102695.66;5435285;26;20077;-74
2024/04/11 00:19:43;;;;;;;7.53;1.80;;;;;;;7.70;82.28;102696.66;5436262;26;20014;-75
2024/04/11 00:22:09;;;;;;;3.17;1.35;;;;;;;7.67;82.68;102707.19;5438754;26;20022;-75
2024/04/11 00:24:36;;;;;;;5.28;1.48;;;;;;;7.65;83.29;102709.03;5432468;26;20103;-74
2024/04/11 00:27:02;;;;;;;9.68;2.20;;;;;;;7.64;83.34;102712.53;5442726;26;20079;-74
2024/04/11 00:29:28;;;;;;;5.10;1.48;;;;;;;7.66;83.53;102717.59;5414522;26;20377;-74
2024/04/11 00:31:57;;;;;;;5.72;1.48;;;;;;;7.69;82.06;102712.28;5410017;26;20017;-74
2024/04/11 00:34:23;;;;;;;10.35;1.70;;;;;;;7.73;81.11;102714.56;5441893;26;20019;-74
2024/04/11 00:36:50;;;;;;;12.45;1.58;;;;;;;7.77;80.61;102712.63;5404718;26;20733;-74
2024/04/11 00:39:20;;;;;;;9.70;2.35;;;;;;;7.81;79.70;102711.53;5442811;26;20480;-74
2024/04/11 00:41:52;;;;;;;8.82;1.92;;;;;;;7.84;79.18;102707.94;5437643;26;19999;-73
2024/04/11 00:44:19;;;;;;;;;;;;;;;7.88;77.94;102699.09;5438276;26;20006;-74
2024/04/11 00:46:52;;;;;;;4.88;1.60;;;;;;;7.91;77.57;102702.31;5414594;26;19932;-74
2024/04/11 00:49:20;;;;;;;5.30;1.30;;;;;;;7.86;78.29;102701.75;5434485;26;20018;-74
2024/04/11 00:51:47;;;;;;;8.98;1.88;;;;;;;7.83;78.72;102703.69;5417771;26;20007;-74
2024/04/11 00:54:17;;;;;;;6.07;1.63;;;;;;;7.83;78.51;102711.44;5412987;26;21448;-75
2024/04/11 00:56:44;;;;;;;7.03;1.50;;;;;;;7.87;77.32;102707.75;5414015;26;20006;-74
2024/04/11 00:59:11;;;;;;;7.93;1.75;;;;;;;7.87;76.31;102703.41;5444605;26;20018;-74
2024/04/11 01:01:37;;;;;;;5.53;1.55;;;;;;;7.89;76.65;102705.91;5442978;26;20330;-74
2024/04/11 01:04:04;;;;;;;6.93;1.40;;;;;;;7.92;76.46;102703.97;5412021;26;20025;-74
2024/04/11 01:07:08;;;;;;;5.18;1.35;;;;;;;7.94;75.68;102698.72;5397637;26;20013;-74
2024/04/11 01:09:38;;;;;;;7.68;1.42;;;;;;;7.92;75.91;102697.97;5446349;26;22449;-74
2024/04/11 01:12:05;;;;;;;5.60;2.20;;;;;;;7.98;75.26;102689.84;5438491;26;20103;-74
2024/04/11 01:14:34;;;;;;;5.32;1.50;;;;;;;7.92;75.76;102696.22;5436050;26;19999;-74
2024/04/11 01:17:01;;;;;;;6.95;1.15;;;;;;;7.98;75.05;102690.66;5441705;26;20018;-74
2024/04/11 01:19:27;;;;;;;6.03;1.13;;;;;;;8.04;75.04;102688.66;5444202;26;20010;-74
2024/04/11 01:21:55;;;;;;;3.45;0.80;;;;;;;7.91;76.01;102686.81;5412415;26;20007;-74
2024/04/11 01:24:21;;;;;;;7.95;1.15;;;;;;;7.92;75.35;102687.66;5407852;26;20011;-74
2024/04/11 01:26:47;;;;;;;7.47;1.17;;;;;;;7.98;75.22;102689.84;5375602;26;20015;-75
2024/04/11 01:29:14;;;;;;;5.13;1.13;;;;;;;7.94;75.08;102685.78;5407977;26;20054;-73
2024/04/11 01:31:41;;;;;;;4.20;1.10;;;;;;;7.86;75.51;102690.59;5413809;26;20003;-73
2024/04/11 01:34:07;;;;;;;5.50;1.08;;;;;;;7.98;74.14;102692.44;5447120;26;20014;-74
2024/04/11 01:36:33;;;;;;;6.20;1.15;;;;;;;7.89;74.91;102700.72;5446368;26;20018;-74
2024/04/11 01:38:59;;;;;;;3.70;1.02;;;;;;;7.80;75.95;102700.38;5417624;26;20042;-74
2024/04/11 01:41:25;;;;;;;3.38;1.02;;;;;;;7.76;76.48;102703.22;5428252;26;20395;-74
2024/04/11 01:43:51;;;;;;;6.75;1.15;;;;;;;7.99;74.35;102694.09;5409516;26;20013;-74
2024/04/11 01:46:18;;;;;;;7.13;1.05;;;;;;;8.07;73.21;102694.47;5416662;26;20115;-74
2024/04/11 01:48:47;;;;;;;6.43;1.75;;;;;;;7.99;73.08;102686.34;5445159;26;20043;-74
2024/04/11 01:51:14;;;;;;;7.68;1.25;;;;;;;8.01;73.21;102687.09;5441921;26;20011;-74
2024/04/11 01:53:40;;;;;;;4.72;1.00;;;;;;;7.95;73.23;102693.47;5411404;26;20018;-74
2024/04/11 01:56:07;;;;;;;5.55;1.13;;;;;;;8.07;73.37;102694.47;5421818;26;20755;-74
2024/04/11 01:58:33;;;;;;;7.00;1.15;;;;;;;8.10;72.40;102701.19;5437283;26;20014;-74
2024/04/11 02:01:09;;;;;;;4.90;1.52;;;;;;;7.98;72.76;102700.19;5439098;26;20008;-74
2024/04/11 02:03:41;;;;;;;6.80;1.02;;;;;;;8.18;71.70;102702.38;5406258;26;20018;-73
2024/04/11 02:06:08;;;;;;;3.97;0.83;;;;;;;8.25;71.43;102702.84;5439690;26;20007;-74
2024/04/11 02:08:37;;;;;;;6.65;1.23;;;;;;;8.33;70.31;102697.22;5432800;26;20376;-74
2024/04/11 02:11:04;;;;;;;6.10;1.50;;;;;;;8.22;71.40;102692.69;5411245;26;20339;-73
2024/04/11 02:13:30;;;;;;;9.38;1.13;;;;;;;8.30;70.61;102690.47;5436271;26;20084;-74
2024/04/11 02:15:57;;;;;;;10.32;1.35;;;;;;;8.35;70.55;102683.25;5442496;26;20022;-74
2024/04/11 02:18:23;;;;;;;4.40;1.00;;;;;;;8.30;70.93;102685.28;5442918;26;20007;-74
2024/04/11 02:20:49;;;;;;;7.18;1.20;;;;;;;8.31;71.90;102681.78;5443282;26;20461;-73
2024/04/11 02:23:16;;;;;;;4.10;0.95;;;;;;;8.19;71.74;102678.22;5444190;26;20018;-74
2024/04/11 02:25:42;;;;;;;4.13;1.10;;;;;;;8.24;71.27;102682.28;5408960;26;20080;-74
2024/04/11 02:28:08;;;;;;;4.78;1.00;;;;;;;8.35;71.01;102683.25;5440149;26;20026;-73
2024/04/11 02:30:34;;;;;;;3.50;0.98;;;;;;;8.27;71.26;102682.91;5435530;26;20342;-73
2024/04/11 02:33:00;;;;;;;5.45;2.10;;;;;;;8.26;71.27;102677.84;5409211;26;20030;-73
2024/04/11 02:35:26;;;;;;;5.40;1.23;;;;;;;8.28;71.33;102678.56;5412972;26;20007;-74
2024/04/11 02:37:53;;;;;;;7.72;1.38;;;;;;;8.32;71.07;102680.03;5380774;26;20003;-73
2024/04/11 02:40:19;;;;;;;8.25;1.40;;;;;;;8.34;70.39;102681.63;5443472;26;20007;-73
2024/04/11 02:42:46;;;;;;;5.85;0.90;;;;;;;8.34;70.73;102689.38;5444286;26;20021;-73
2024/04/11 02:45:14;;;;;;;5.57;1.10;;;;;;;8.39;70.93;102676.97;5443634;26;20462;-73
2024/04/11 02:47:41;;;;;;;9.77;1.20;;;;;;;8.52;69.80;102677.06;5401335;26;20019;-73
2024/04/11 02:50:09;;;;;;;9.90;1.30;;;;;;;8.50;69.54;102683.28;5415792;26;20003;-74
2024/04/11 02:52:36;;;;;;;7.47;1.20;;;;;;;8.57;69.71;102690.53;5403431;26;20015;-74
2024/04/11 02:55:04;;;;;;;5.57;1.25;;;;;;;8.61;69.24;102686.00;5444919;26;20002;-73
2024/04/11 02:57:31;;;;;;;8.73;1.33;;;;;;;8.67;70.01;102697.72;5441761;26;20063;-74
2024/04/11 02:59:57;;;;;;;6.78;1.90;;;;;;;8.57;70.93;102695.72;5402886;26;20007;-74
2024/04/11 03:02:28;;;;;;;9.90;2.42;;;;;;;8.61;70.17;102692.91;5417338;26;20003;-74
2024/04/11 03:04:57;;;;;;;5.30;1.33;;;;;;;8.66;70.11;102696.88;5444627;26;20010;-73
2024/04/11 03:07:23;;;;;;;8.23;1.60;;;;;;;8.83;70.24;102689.78;5407885;26;20084;-74
2024/04/11 03:09:53;;;;;;;3.38;0.93;;;;;;;8.75;69.87;102691.13;5412944;26;20050;-73
2024/04/11 03:12:19;;;;;;;6.07;1.95;;;;;;;8.81;70.03;102686.47;5407445;26;20022;-74
2024/04/11 03:14:46;;;;;;;7.85;1.15;;;;;;;8.73;69.93;102690.38;5443696;26;20007;-74
2024/04/11 03:17:13;;;;;;;4.38;1.08;;;;;;;8.91;69.41;102692.72;5437524;26;20415;-74
2024/04/11 03:19:39;;;;;;;4.80;1.33;;;;;;;8.84;69.34;102692.28;5404557;26;20385;-74
2024/04/11 03:22:05;;;;;;;2.83;0.93;;;;;;;8.91;69.84;102692.72;5439260;26;20007;-74
2024/04/11 03:24:32;;;;;;;6.65;1.50;;;;;;;9.06;70.07;102690.88;5405627;26;22366;-74
2024/04/11 03:27:00;;;;;;;3.92;1.00;;;;;;;9.08;69.50;102692.47;5445831;26;20014;-74
2024/04/11 03:29:27;;;;;;;9.15;1.02;;;;;;;9.10;69.43;102674.25;5444231;26;20011;-74
2024/04/11 03:31:54;;;;;;;11.18;1.65;;;;;;;9.04;69.81;102672.91;5441475;26;20092;-74
2024/04/11 03:34:24;;;;;;;11.23;1.80;;;;;;;9.04;69.79;102664.28;5412546;26;20593;-74
2024/04/11 03:36:50;;;;;;;7.05;1.27;;;;;;;9.18;69.42;102655.63;5438350;26;20017;-74
2024/04/11 03:39:16;;;;;;;9.77;1.90;;;;;;;9.06;69.95;102646.91;5436298;26;20004;-74
2024/04/11 03:41:49;;;;;;;7.60;1.98;;;;;;;8.94;71.09;102651.94;5398426;26;21913;-75
2024/04/11 03:44:15;;;;;;;6.95;1.40;;;;;;;9.09;70.84;102644.13;5409506;26;20375;-73
2024/04/11 03:46:41;;;;;;;9.13;1.67;;;;;;;9.12;70.77;102647.34;5406023;26;20080;-74
2024/04/11 03:49:08;;;;;;;8.05;1.33;;;;;;;9.18;70.52;102646.09;5427945;26;20007;-74
2024/04/11 03:51:39;;;;;;;4.97;1.38;;;;;;;9.06;70.85;102647.75;5385030;26;20087;-74
2024/04/11 03:54:07;;;;;;;9.15;1.20;;;;;;;8.93;71.88;102636.53;5444146;26;20049;-74
2024/04/11 03:56:33;;;;;;;7.90;1.15;;;;;;;8.97;72.47;102638.00;5414898;26;20485;-74
2024/04/11 03:58:59;;;;;;;3.63;1.08;;;;;;;9.10;72.03;102641.44;5440393;26;20010;-74
2024/04/11 04:01:26;;;;;;;6.07;1.40;;;;;;;9.18;71.70;102635.75;5413270;26;20079;-74
2024/04/11 04:03:56;;;;;;;6.32;1.15;;;;;;;9.03;72.23;102641.94;5447410;26;20018;-74
2024/04/11 04:06:21;;;;;;;7.10;1.30;;;;;;;8.95;73.24;102650.22;5392758;26;20038;-74
2024/04/11 04:08:49;;;;;;;2.72;1.20;;;;;;;9.00;72.98;102649.91;5442336;26;20015;-74
2024/04/11 04:11:17;;;;;;;2.30;1.20;;;;;;;8.99;73.07;102662.00;5447615;26;20023;-74
2024/04/11 04:13:43;;;;;;;6.97;1.33;;;;;;;9.03;73.01;102649.72;5440878;26;20003;-74
2024/04/11 04:16:11;;;;;;;7.10;1.20;;;;;;;8.97;73.50;102656.13;5416002;26;20465;-74
2024/04/11 04:18:38;;;;;;;8.18;1.30;;;;;;;9.06;73.04;102652.91;5414767;26;20030;-74
2024/04/11 04:21:06;;;;;;;8.35;1.30;;;;;;;9.23;71.80;102646.63;5439487;26;20012;-74
2024/04/11 04:23:32;;;;;;;7.25;1.92;;;;;;;9.26;71.08;102653.34;5409375;26;20013;-74
2024/04/11 04:26:00;;;;;;;9.40;1.33;;;;;;;9.16;72.44;102653.97;5417094;26;20108;-74
2024/04/11 04:28:31;;;;;;;10.48;1.45;;;;;;;9.30;72.05;102660.81;5411175;26;20023;-74
2024/04/11 04:31:28;;;;;;;4.72;1.20;;;;;;;9.32;70.40;102658.97;5380255;26;20018;-74
2024/04/11 04:33:57;;;;;;;9.27;1.20;;;;;;;9.46;69.21;102663.22;5408263;26;20798;-73
2024/04/11 04:36:28;;;;;;;11.10;1.95;;;;;;;9.39;69.69;102653.38;5440028;26;20015;-74
2024/04/11 04:38:56;;;;;;;4.07;1.20;;;;;;;9.55;69.30;102659.19;5406258;26;20640;-74
2024/04/11 04:41:29;;;;;;;4.65;1.35;;;;;;;9.58;68.72;102656.38;5444743;26;20006;-75
2024/04/11 04:43:56;;;;;;;9.35;1.27;;;;;;;9.55;68.83;102654.81;5402547;26;20006;-74
2024/04/11 04:46:25;;;;;;;6.22;1.40;;;;;;;9.47;69.51;102649.31;5446903;26;20011;-74
2024/04/11 04:48:52;;;;;;;3.90;1.30;;;;;;;9.46;69.78;102650.25;5438845;26;20014;-74
2024/04/11 04:51:21;;;;;;;6.57;1.25;;;;;;;9.50;69.58;102643.13;5417517;26;20048;-74
2024/04/11 04:53:54;;;;;;;13.52;1.63;;;;;;;9.64;68.87;102642.16;5413002;26;20016;-74
2024/04/11 04:56:24;;;;;;;6.28;1.15;;;;;;;9.57;68.63;102641.78;5445600;26;20014;-75
2024/04/11 04:58:53;;;;;;;5.75;1.08;;;;;;;9.75;68.47;102637.91;5437421;26;20003;-74
2024/04/11 05:01:20;;;;;;;7.63;1.27;;;;;;;9.84;67.72;102649.41;5434499;26;20079;-74
2024/04/11 05:03:47;;;;;;;8.18;1.83;;;;;;;9.84;67.73;102646.00;5435693;26;20139;-74
2024/04/11 05:06:15;;;;;;;9.43;1.30;;;;;;;9.83;68.52;102644.31;5412929;26;20020;-74
2024/04/11 05:08:46;;;;;;;8.05;1.45;;;;;;;9.88;67.65;102644.84;5409089;26;20022;-74
2024/04/11 05:11:13;;;;;;;10.23;1.52;;;;;;;9.87;68.15;102653.53;5441240;26;20018;-74
2024/04/11 05:13:40;;;;;;;6.65;1.27;;;;;;;9.99;67.23;102647.50;5442794;26;20006;-74
2024/04/11 05:16:07;;;;;;;7.95;1.02;;;;;;;9.87;68.16;102650.94;5413315;26;20014;-73
2024/04/11 05:18:38;;;;;;;6.20;1.13;;;;;;;9.88;68.92;102650.03;5380398;26;20003;-74
2024/04/11 05:21:08;;;;;;;7.45;0.98;;;;;;;9.97;68.37;102644.19;5414681;26;20448;-74
2024/04/11 05:23:39;;;;;;;7.50;1.25;;;;;;;10.03;68.34;102638.56;5441368;26;20103;-74
2024/04/11 05:26:14;;;;;;;7.97;1.77;;;;;;;10.05;68.21;102631.53;5409845;26;20024;-75
2024/04/11 05:28:44;;;;;;;10.45;1.90;;;;;;;10.07;68.92;102628.81;5436149;26;20007;-74
2024/04/11 05:31:16;;;;;;;5.15;1.50;;;;;;;10.06;68.53;102645.34;5443072;26;20019;-74
2024/04/11 05:33:43;;;;;;;7.07;1.58;;;;;;;10.02;69.07;102646.47;5443711;26;20083;-74
2024/04/11 05:36:12;;;;;;;6.07;1.58;;;;;;;10.02;69.45;102649.03;5410164;26;20006;-74
2024/04/11 05:38:44;;;;;;;8.93;1.60;;;;;;;10.08;69.44;102643.47;5409867;26;20027;-74
2024/04/11 05:41:14;;;;;;;6.90;1.60;;;;;;;10.12;69.63;102648.31;5442769;26;20007;-74
2024/04/11 05:43:42;;;;;;;13.85;1.95;;;;;;;10.02;69.75;102644.72;5413396;26;20083;-74
2024/04/11 05:46:19;;;;;;;10.75;1.88;;;;;;;10.02;70.13;102643.88;5442086;26;20010;-74
2024/04/11 05:48:47;;;;;;;6.50;1.70;;;;;;;10.10;70.25;102639.00;5442504;26;20025;-74
2024/04/11 05:51:14;;;;;;;6.68;1.52;;;;;;;10.19;69.59;102653.03;5443231;26;20092;-74
2024/04/11 05:53:41;;;;;;;6.93;1.83;;;;;;;10.13;70.95;102664.69;5442319;26;20074;-74
2024/04/11 05:56:12;;;;;;;11.05;1.40;;;;;;;10.14;70.04;102656.78;5440326;26;20015;-74
2024/04/11 05:58:40;;;;;;;7.32;1.45;;;;;;;10.14;69.91;102658.56;5438698;26;20021;-74
2024/04/11 06:01:08;;;;;;;5.93;1.20;;;;;;;10.16;70.56;102667.06;5445265;26;20015;-75
2024/04/11 06:03:40;;;;;;;13.90;1.63;;;;;;;10.30;70.21;102666.97;5443027;26;20011;-74
2024/04/11 06:06:13;;;;;;;6.60;1.42;;;;;;;10.47;69.89;102673.53;5441481;26;20462;-74
2024/04/11 06:08:40;;;;;;;;;;;;;;;10.45;69.09;102669.38;5410206;26;20076;-74
2024/04/11 06:11:10;;;;;;;8.45;1.33;;;;;;;10.44;70.05;102676.34;5443673;26;20412;-74
2024/04/11 06:13:36;;;;;;;8.05;1.67;;;;;;;10.36;70.68;102681.25;5431087;26;20010;-74
2024/04/11 06:16:02;;;;;;;9.85;1.60;;;;;;;10.25;73.29;102679.38;5410171;26;20003;-74
2024/04/11 06:18:30;;;;;;;8.38;1.65;;;;;;;10.31;74.05;102680.75;5408425;26;20006;-75
2024/04/11 06:20:57;;;;;;;15.60;1.70;;;;;;;10.23;75.00;102693.41;5438510;26;20003;-74
2024/04/11 06:23:26;;;;;;;9.38;1.70;;;;;;;10.24;76.63;102701.06;5443921;26;20013;-74
2024/04/11 06:25:53;;;;;;;6.68;2.20;;;;;;;10.30;75.63;102697.19;5409604;26;19998;-74
2024/04/11 06:28:19;;;;;;;12.63;1.85;;;;;;;10.28;76.25;102699.91;5435594;26;20435;-74
2024/04/11 06:30:52;;;;;;;5.55;1.48;;;;;;;10.39;75.39;102700.94;5442179;26;20075;-74
2024/04/11 06:33:18;;;;;;;8.57;1.75;;;;;;;10.39;76.23;102700.94;5441979;26;20007;-74
2024/04/11 06:35:51;;;;;;;8.35;1.40;;;;;;;10.47;76.42;102701.22;5410790;26;20071;-74
2024/04/11 06:38:19;;;;;;;;;;;;;;;10.51;76.24;102710.47;5443394;26;20026;-74
2024/04/11 06:40:45;;;;;;;6.35;1.17;;;;;;;10.48;76.58;102713.28;5445350;26;19924;-74
2024/04/11 06:43:16;;;;;;;10.27;1.63;;;;;;;10.50;77.47;102716.56;5412928;26;20563;-74
2024/04/11 06:45:45;;;;;;;11.32;1.83;;;;;;;10.67;76.49;102712.78;5411108;26;21394;-74
2024/04/11 06:48:12;;;;;;;7.75;1.80;;;;;;;10.69;76.43;102716.91;5437079;26;20080;-74
2024/04/11 06:50:38;;;;;;;6.28;1.48;;;;;;;10.65;77.61;102718.06;5412034;26;20043;-74
2024/04/11 06:53:06;;;;;;;14.73;1.80;;;;;;;10.65;78.28;102723.25;5444131;26;20007;-74
2024/04/11 06:55:32;;;;;;;11.32;1.73;;;;;;;10.81;77.03;102720.41;5409939;26;20016;-74
2024/04/11 06:58:01;;;;;;;15.85;3.30;;;;;;;10.84;76.61;102724.53;5410746;26;20380;-74
2024/04/11 07:00:36;;;;;;;16.30;2.13;;;;;;;10.86;76.17;102733.03;5441257;26;19999;-74
2024/04/11 07:03:26;;;;;;;6.97;1.60;;;;;;;10.76;77.84;102732.06;5444247;26;20091;-74
2024/04/11 07:05:56;;;;;;;10.25;1.85;;;;;;;10.81;77.32;102743.78;5442827;26;20013;-74
2024/04/11 07:08:31;;;;;;;17.25;2.25;;;;;;;10.97;77.32;102740.06;5439717;26;20023;-74
2024/04/11 07:11:18;;;;;;;11.05;1.77;;;;;;;10.98;76.73;102732.16;5377840;26;21583;-74
2024/04/11 07:13:45;;;;;;;10.43;1.63;;;;;;;10.96;76.30;102744.41;5420955;26;20006;-74
2024/04/11 07:16:16;;;;;;;13.27;2.17;;;;;;;11.13;75.94;102742.34;5441201;26;20076;-74
2024/04/11 07:18:48;;;;;;;13.98;1.98;;;;;;;11.07;76.79;102756.63;5404711;26;19999;-74
2024/04/11 07:21:19;;;;;;;10.27;1.77;;;;;;;11.10;75.35;102756.41;5444364;26;19999;-74
2024/04/11 07:23:47;;;;;;;12.52;1.60;;;;;;;11.21;74.42;102764.22;5441537;26;20015;-74
2024/04/11 07:26:16;;;;;;;21.00;2.47;;;;;;;11.27;74.80;102770.75;5445477;26;20027;-75
2024/04/11 07:28:45;;;;;;;15.05;1.90;;;;;;;11.24;75.72;102763.16;5418778;26;20038;-74
2024/04/11 07:31:14;;;;;;;11.10;1.55;;;;;;;11.42;74.77;102758.41;5413311;26;20407;-74
2024/04/11 07:33:41;;;;;;;10.93;1.73;;;;;;;11.48;73.75;102758.75;5408248;26;20015;-75
2024/04/11 07:36:09;;;;;;;12.35;2.05;;;;;;;11.64;72.62;102753.25;5413704;26;20081;-74
2024/04/11 07:38:37;;;;;;;9.73;2.28;;;;;;;11.67;72.91;102760.81;5406616;26;20007;-75
2024/04/11 07:41:20;;;;;;;8.63;1.90;;;;;;;11.69;74.76;102753.72;5408488;26;20080;-74
2024/04/11 07:43:47;;;;;;;8.98;2.00;;;;;;;11.72;73.92;102755.28;5438197;26;20682;-74
2024/04/11 07:46:16;;;;;;;15.77;2.45;;;;;;;11.90;73.83;102749.66;5440576;26;20014;-74
2024/04/11 07:48:51;;;;;;;10.57;1.83;;;;;;;12.02;72.29;102759.94;5439970;26;20011;-75
2024/04/11 07:51:18;;;;;;;11.02;1.88;;;;;;;12.05;74.64;102757.13;5420055;26;20433;-75
2024/04/11 07:53:46;;;;;;;10.68;1.80;;;;;;;11.97;74.96;102756.03;5441841;26;20461;-74
2024/04/11 07:56:25;;;;;;;11.45;1.60;;;;;;;12.00;75.52;102755.81;5411654;26;20470;-74
2024/04/11 07:58:55;;;;;;;10.32;1.83;;;;;;;12.16;74.77;102758.06;5439876;26;20017;-74
2024/04/11 08:01:31;;;;;;;12.10;1.65;;;;;;;12.22;74.12;102757.56;5444377;26;20014;-74
2024/04/11 08:04:01;;;;;;;10.90;2.05;;;;;;;12.29;73.92;102758.75;5440296;26;23268;-74
2024/04/11 08:06:32;;;;;;;5.68;1.45;;;;;;;12.29;74.47;102748.34;5440712;26;20076;-75
2024/04/11 08:09:06;;;;;;;7.75;1.60;;;;;;;12.38;75.14;102746.81;5438965;26;20015;-74
2024/04/11 08:11:34;;;;;;;11.20;2.75;;;;;;;12.36;75.28;102752.13;5441693;26;20058;-74
2024/04/11 08:14:04;;;;;;;10.50;1.65;;;;;;;12.48;75.10;102752.13;5443148;26;20003;-74
2024/04/11 08:16:32;;;;;;;10.43;1.23;;;;;;;12.64;74.33;102755.16;5415240;26;19999;-74
2024/04/11 08:19:02;;;;;;;6.53;1.77;;;;;;;12.62;73.55;102754.44;5412604;26;20038;-74
2024/04/11 08:21:35;;;;;;;7.68;1.50;;;;;;;12.62;73.65;102754.44;5446624;26;20039;-75
2024/04/11 08:24:02;;;;;;;4.38;1.77;;;;;;;12.70;74.41;102756.44;5440705;26;20018;-75
2024/04/11 08:26:29;;;;;;;3.70;1.33;;;;;;;12.79;75.08;102766.94;5405771;26;20960;-76
2024/04/11 08:28:55;;;;;;;11.75;1.85;;;;;;;12.93;73.53;102771.03;5409633;26;20030;-74
2024/04/11 08:31:28;;;;;;;10.23;2.20;;;;;;;12.93;73.80;102758.03;5444003;26;20007;-74
2024/04/11 08:33:57;;;;;;;7.60;1.97;;;;;;;12.95;73.20;102763.94;5439347;26;20014;-74
2024/04/11 08:36:23;;;;;;;7.60;1.52;;;;;;;13.15;73.10;102762.31;5408912;26;20015;-74
2024/04/11 08:38:49;;;;;;;7.68;2.42;;;;;;;13.22;71.36;102773.03;5405502;26;20080;-74
2024/04/11 08:41:20;;;;;;;11.52;2.00;;;;;;;13.21;71.31;102776.63;5445086;26;19995;-75
2024/04/11 08:43:46;;;;;;;3.35;1.35;;;;;;;13.16;71.99;102771.78;5441836;26;19999;-75
2024/04/11 08:46:13;;;;;;;8.07;1.77;;;;;;;13.28;71.93;102775.16;5416299;26;20019;-74
2024/04/11 08:48:40;;;;;;;6.40;1.67;;;;;;;13.20;72.53;102777.56;5438455;26;20068;-74
2024/04/11 08:51:20;;;;;;;9.73;1.60;;;;;;;13.29;71.78;102787.22;5414699;26;20006;-75
2024/04/11 08:53:48;;;;;;;8.25;1.33;;;;;;;13.34;73.93;102785.13;5432116;26;20011;-74
2024/04/11 08:56:16;;;;;;;10.48;1.73;;;;;;;13.38;73.63;102791.72;5439766;26;20011;-74
2024/04/11 08:58:43;;;;;;;7.38;1.25;;;;;;;13.52;73.84;102794.97;5435711;26;20002;-75
2024/04/11 09:01:10;;;;;;;4.18;1.38;;;;;;;13.45;74.69;102794.66;5441427;26;20073;-74
2024/04/11 09:03:40;;;;;;;7.22;1.50;;;;;;;13.50;72.37;102797.69;5448682;26;20510;-74
2024/04/11 09:06:10;;;;;;;10.23;1.70;;;;;;;13.59;74.73;102803.94;5443724;26;19998;-75
2024/04/11 09:08:36;;;;;;;9.13;1.58;;;;;;;13.65;73.00;102802.59;5443462;26;20014;-74
2024/04/11 09:11:04;;;;;;;8.85;1.60;;;;;;;13.67;72.12;102814.53;5441352;26;20036;-75
2024/04/11 09:13:30;;;;;;;13.23;2.40;;;;;;;13.63;73.97;102818.38;5440781;26;20419;-75
2024/04/11 09:16:00;;;;;;;6.40;1.45;;;;;;;13.60;73.09;102816.84;5440891;26;20014;-75
2024/04/11 09:18:27;;;;;;;6.82;1.40;;;;;;;13.55;74.03;102826.00;5412437;26;21051;-75
2024/04/11 09:21:19;;;;;;;9.50;1.80;;;;;;;13.67;74.13;102830.19;5386239;26;20084;-75
2024/04/11 09:23:47;;;;;;;11.15;2.08;;;;;;;13.60;74.61;102832.50;5431274;26;20080;-75
2024/04/11 09:26:17;;;;;;;12.10;1.38;;;;;;;13.61;76.66;102836.72;5445823;26;20136;-75
2024/04/11 09:28:44;;;;;;;5.45;1.38;;;;;;;13.68;77.02;102824.03;5406873;26;20011;-75
2024/04/11 09:31:11;;;;;;;10.60;1.75;;;;;;;13.62;77.84;102833.19;5441395;26;20419;-75
2024/04/11 09:33:41;;;;;;;6.70;1.73;;;;;;;13.64;79.17;102827.84;5412168;26;20059;-74
2024/04/11 09:36:11;;;;;;;10.73;1.73;;;;;;;13.54;78.49;102830.41;5442913;26;20019;-75
2024/04/11 09:38:41;;;;;;;5.63;1.50;;;;;;;13.44;79.99;102822.47;5433171;26;20335;-75
2024/04/11 09:41:12;;;;;;;6.72;1.67;;;;;;;13.49;78.53;102847.34;5441090;26;20333;-74
2024/04/11 09:43:41;;;;;;;8.45;1.38;;;;;;;13.53;80.87;102838.34;5445891;26;20006;-75
2024/04/11 09:46:08;;;;;;;8.45;1.33;;;;;;;13.57;82.79;102837.13;5411788;26;19999;-77
2024/04/11 09:48:41;;;;;;;10.65;1.27;;;;;;;13.67;79.74;102835.41;5445668;26;20067;-75
2024/04/11 09:51:10;;;;;;;4.53;1.17;;;;;;;13.56;80.65;102833.69;5445746;26;20018;-76
2024/04/11 09:53:37;;;;;;;4.50;1.30;;;;;;;13.56;80.03;102823.28;5405298;26;20096;-75
2024/04/11 09:56:06;;;;;;;9.80;1.65;;;;;;;13.70;78.80;102824.72;5437443;26;20014;-76
2024/04/11 09:58:41;;;;;;;6.28;1.70;;;;;;;13.77;79.16;102831.09;5440457;26;20011;-75
2024/04/11 10:01:20;;;;;;;13.48;1.80;;;;;;;13.88;78.45;102827.59;5440641;26;19998;-76
2024/04/11 10:03:46;;;;;;;11.32;2.08;;;;;;;13.91;78.53;102835.13;5414525;26;20373;-76
2024/04/11 10:06:13;;;;;;;10.73;2.03;;;;;;;14.05;78.82;102831.38;5410556;26;20015;-75
2024/04/11 10:08:42;;;;;;;7.63;1.92;;;;;;;14.08;78.18;102838.94;5411895;26;20007;-76
2024/04/11 10:11:12;;;;;;;10.98;1.60;;;;;;;14.09;77.06;102842.38;5427713;26;20081;-75
2024/04/11 10:13:42;;;;;;;4.28;1.40;;;;;;;14.11;77.77;102843.06;5413382;26;19995;-76
2024/04/11 10:16:31;;;;;;;5.75;1.55;;;;;;;14.10;78.06;102846.66;5410132;26;20122;-76
2024/04/11 10:19:05;;;;;;;6.82;1.40;;;;;;;14.08;77.54;102849.38;5405315;26;20476;-75
2024/04/11 10:21:33;;;;;;;11.63;1.48;;;;;;;14.17;76.84;102856.44;5410956;26;20462;-75
2024/04/11 10:24:14;;;;;;;14.20;2.38;;;;;;;14.10;78.13;102857.91;5416633;26;20709;-75
2024/04/11 10:26:43;;;;;;;5.63;1.33;;;;;;;14.11;78.35;102870.00;5438806;26;20002;-74
2024/04/11 10:29:18;;;;;;;8.50;1.20;;;;;;;14.13;78.58;102859.44;5413213;26;20019;-75
2024/04/11 10:31:45;;;;;;;9.50;1.83;;;;;;;14.08;78.14;102853.78;5441615;26;20472;-74
2024/04/11 10:34:19;;;;;;;6.85;1.15;;;;;;;14.18;77.27;102854.63;5441217;26;20799;-74
2024/04/11 10:36:53;;;;;;;5.35;1.42;;;;;;;14.01;78.03;102859.50;5445267;26;20590;-74
2024/04/11 10:39:19;;;;;;;6.55;1.40;;;;;;;13.96;78.69;102860.84;5442887;26;21142;-75
2024/04/11 10:41:51;;;;;;;6.72;1.05;;;;;;;13.95;78.94;102861.78;5410808;26;20014;-75
2024/04/11 10:44:18;;;;;;;7.47;1.20;;;;;;;14.01;80.33;102859.50;5409000;26;20007;-75
2024/04/11 10:46:44;;;;;;;4.80;1.00;;;;;;;14.02;79.53;102866.38;5445396;26;20079;-75
2024/04/11 10:49:15;;;;;;;10.73;1.48;;;;;;;14.10;79.92;102875.34;5445761;26;20006;-74
2024/04/11 10:51:42;;;;;;;6.05;1.23;;;;;;;14.13;79.39;102873.31;5442233;26;20006;-75
2024/04/11 10:54:11;;;;;;;6.25;1.05;;;;;;;14.15;79.62;102875.78;5439734;26;20011;-74
2024/04/11 10:56:44;;;;;;;4.38;1.20;;;;;;;14.16;80.32;102891.28;5401018;26;20035;-74
2024/04/11 10:59:26;;;;;;;8.00;1.13;;;;;;;14.19;79.99;102882.41;5440002;26;20030;-74
2024/04/11 11:02:08;;;;;;;6.38;1.10;;;;;;;14.17;79.76;102877.28;5410978;26;20019;-75
2024/04/11 11:04:37;;;;;;;8.77;1.92;;;;;;;14.18;79.29;102884.19;5401476;26;20003;-74
2024/04/11 11:07:09;;;;;;;4.60;1.27;;;;;;;14.16;79.35;102886.06;5412345;26;20026;-74
2024/04/11 11:09:42;;;;;;;6.80;1.33;;;;;;;14.19;79.39;102891.03;5441068;26;20007;-74
2024/04/11 11:12:12;;;;;;;6.38;1.30;;;;;;;14.23;80.39;102890.78;5409135;26;20469;-75
2024/04/11 11:14:38;;;;;;;8.55;1.67;;;;;;;14.32;79.68;102892.63;5410346;26;20011;-75
2024/04/11 11:17:17;;;;;;;4.15;1.10;;;;;;;14.27;80.29;102892.19;5433854;26;20083;-75
2024/04/11 11:19:44;;;;;;;3.88;1.23;;;;;;;14.45;80.03;102895.00;5438802;26;20021;-75
2024/04/11 11:22:11;;;;;;;9.88;1.70;;;;;;;14.44;80.33;102891.56;5439967;26;20010;-75
2024/04/11 11:24:37;;;;;;;6.47;1.42;;;;;;;14.48;78.88;102898.19;5413220;26;20015;-74
2024/04/11 11:27:06;;;;;;;5.72;1.50;;;;;;;14.46;78.61;102901.88;5412674;26;20007;-75
2024/04/11 11:29:33;;;;;;;6.80;1.40;;;;;;;14.47;79.46;102893.94;5378739;26;20010;-75
2024/04/11 11:32:04;;;;;;;9.18;1.15;;;;;;;14.60;79.53;102894.56;5413165;26;20007;-75
2024/04/11 11:34:35;;;;;;;7.70;1.50;;;;;;;14.73;79.22;102893.50;5378495;26;20010;-75